createdAt,value
2022-10-29T03:37:39.331Z,7.80
2022-10-29T03:42:33.552Z,7.70
2022-10-29T07:09:43.011Z,8.70
2022-10-29T07:35:46.548Z,10.00
2022-10-29T07:56:33.650Z,10.80
2022-10-29T08:14:20.238Z,11.30
2022-10-29T08:19:16.415Z,11.60
2022-10-29T08:35:32.212Z,12.50
2022-10-29T08:40:31.742Z,12.80
2022-10-29T08:45:30.310Z,13.00
2022-10-29T08:50:29.033Z,13.30
2022-10-29T08:55:28.893Z,13.50
2022-10-29T09:00:28.519Z,13.80
2022-10-29T09:05:25.930Z,14.00
2022-10-29T09:10:32.728Z,14.30
2022-10-29T09:15:37.106Z,14.50
2022-10-29T09:20:42.159Z,14.80
2022-10-29T09:25:44.951Z,15.20
2022-10-29T09:30:45.310Z,15.50
2022-10-29T09:35:42.169Z,15.80
2022-10-29T09:40:40.233Z,16.20
2022-10-29T09:45:44.768Z,16.50
2022-10-29T09:50:50.577Z,17.00
2022-10-29T09:55:53.429Z,17.50
2022-10-29T10:00:47.209Z,18.10
2022-10-29T10:06:01.770Z,18.60
2022-10-29T10:11:02.484Z,19.10
2022-10-29T10:15:58.237Z,19.60
2022-10-29T10:21:05.118Z,20.00
2022-10-29T10:26:04.067Z,20.40
2022-10-29T10:31:12.925Z,20.70
2022-10-29T10:36:09.926Z,21.10
2022-10-29T10:41:11.965Z,21.40
2022-10-29T10:46:13.810Z,21.50
2022-10-29T10:51:21.737Z,21.90
2022-10-29T10:56:22.268Z,22.40
2022-10-29T11:01:22.518Z,22.70
2022-10-29T11:06:20.183Z,23.00
2022-10-29T11:11:24.777Z,23.30
2022-10-29T11:16:22.197Z,23.60
2022-10-29T11:21:22.259Z,23.80
2022-10-29T11:26:23.383Z,24.40
2022-10-29T11:31:26.338Z,24.50
2022-10-29T11:36:23.018Z,24.90
2022-10-29T11:41:27.042Z,25.00
2022-10-29T11:46:34.305Z,25.30
2022-10-29T11:51:34.560Z,25.50
2022-10-29T11:56:47.271Z,25.70
2022-10-29T12:01:49.270Z,26.00
2022-10-29T12:06:48.186Z,26.20
2022-10-29T12:11:52.291Z,26.70
2022-10-29T12:16:53.009Z,26.70
2022-10-29T12:21:53.687Z,26.60
2022-10-29T12:26:54.738Z,26.90
2022-10-29T12:31:58.627Z,26.90
2022-10-29T12:37:00.882Z,26.60
2022-10-29T12:42:02.695Z,27.10
2022-10-29T12:47:04.505Z,27.50
2022-10-29T12:52:01.676Z,27.80
2022-10-29T12:56:57.921Z,28.20
2022-10-29T13:07:23.322Z,29.40
2022-10-29T13:12:55.486Z,30.00
2022-10-29T13:17:51.286Z,30.40
2022-10-29T13:22:56.739Z,31.20
2022-10-29T13:27:52.130Z,31.50
2022-10-29T13:32:46.081Z,31.70
2022-10-29T13:38:19.688Z,31.90
2022-10-29T13:43:19.581Z,31.70
2022-10-29T13:48:21.399Z,31.40
2022-10-29T13:53:17.205Z,30.60
2022-10-29T13:58:17.893Z,28.70
2022-10-29T14:03:17.889Z,26.90
2022-10-29T14:08:18.833Z,26.70
2022-10-29T14:13:29.290Z,26.10
2022-10-29T14:18:27.903Z,26.00
2022-10-29T14:23:21.478Z,26.30
2022-10-29T14:28:25.976Z,26.30
2022-10-29T14:33:37.451Z,24.90
2022-10-29T14:38:39.190Z,23.90
2022-10-29T14:43:33.274Z,23.30
2022-10-29T14:48:28.503Z,22.90
2022-10-29T14:53:31.266Z,22.80
2022-10-29T14:58:28.961Z,22.70
2022-10-29T15:03:25.680Z,22.50
2022-10-29T15:08:29.518Z,22.20
2022-10-29T15:13:25.850Z,21.80
2022-10-29T15:18:22.586Z,21.50
2022-10-29T15:23:31.280Z,21.30
2022-10-29T15:28:28.601Z,21.10
2022-10-29T15:33:26.710Z,20.80
2022-10-29T15:39:21.329Z,20.60
2022-10-29T15:44:39.162Z,20.30
2022-10-29T15:49:33.119Z,20.00
2022-10-29T15:54:36.951Z,19.60
2022-10-29T15:59:30.953Z,19.40
2022-10-29T16:04:36.334Z,19.10
2022-10-29T16:09:35.158Z,18.80
2022-10-29T16:14:29.565Z,18.60
2022-10-29T16:19:23.238Z,18.40
2022-10-29T16:24:17.274Z,18.20
2022-10-29T16:29:16.268Z,18.00
2022-10-29T16:34:15.154Z,17.80
2022-10-29T16:39:11.501Z,17.50
